Nikolaevsk, Alaska
Current Conditions -  °F | °C
As of 11:53 AM on Friday 31 Oct 2014 (Local Time) from PAHO Reporting Station
Overcast Overcast  
Wind Chill: 25°   Ceiling: 3700
Heat Index: 32°   Visibility: 10mi
Dew Point: 23°   Wind: 8mph
Humidity: 69%   Direction: 50°NE
Pressure: 29.19"   Gusts: NA
Location:  59.8183°N, 151.638°W
Report Text: PAHO 311953Z 05007KT 10SM OVC037 00/M05 A2919 RMK AO2 SLP884 T00001050
Loading
Personal Weather Stations






























Interactive Weather Map New forecast layout! Learn more

10-Day Weather Forecast

Advertisements
Track Severe Weather on mobile